Main page
METAR-TAF:

METAR-TAF

Airports :

Salak Airport

Maroua, Cameroon

latitude: 10-27N, longitude: 014-15E, elevation: 423 m

Current weather observation

The report was made 7 hours and 56 minutes ago, at 14:00 UTC
Temperature 35°C
Humidity 50%
Pressure 1013 hPa
Visibility 10 km or more
Few clouds at a height of 4000 ft

METAR: FKKL 051400Z /////KT 9999 FEW040 35/23 Q1013

Time: 22:56 (21:56 UTC)

Forecast

The report was made 16 hours and 56 minutes ago, at 05:00 UTC
Forecast valid from 05 at 06 UTC to 05 at 18 UTC
Wind 8 kt from the Northwest
Visibility 10 km or more
Few clouds at a height of 3000 ft

TAF: FKKL 050500Z 0506/0518 31008KT 9999 FEW030

Weather observations and forecasts of more than 4000 airports (METAR and TAF reports).

The available stations are represented by yellow and red dots on the map.

Hover mouse over dot to see the name of the station.

Then click to see weather observations and forecasts.

To change the map : click on the green buttons with a black cross to zoom in, on the green button with a dash to zoom out, or on the green arrows for adjacent maps.


METAR-TAF: